sensor_id;sensor_type;location;lat;lon;timestamp;pressure;altitude;pressure_sealevel;temperature;humidity
64827;BME280;51265;53.972;12.286;2023-08-07T00:00:00;99557.16;;;11.88;100.00
64827;BME280;51265;53.972;12.286;2023-08-07T00:02:26;99566.38;;;11.92;100.00
64827;BME280;51265;53.972;12.286;2023-08-07T00:04:52;99568.66;;;11.90;100.00
64827;BME280;51265;53.972;12.286;2023-08-07T00:07:19;99564.78;;;11.91;100.00
64827;BME280;51265;53.972;12.286;2023-08-07T00:09:45;99560.88;;;11.92;100.00
64827;BME280;51265;53.972;12.286;2023-08-07T00:12:11;99560.88;;;11.92;100.00
64827;BME280;51265;53.972;12.286;2023-08-07T00:14:38;99551.78;;;11.92;100.00
64827;BME280;51265;53.972;12.286;2023-08-07T00:17:05;99550.78;;;11.96;100.00
64827;BME280;51265;53.972;12.286;2023-08-07T00:19:31;99545.41;;;12.00;100.00
64827;BME280;51265;53.972;12.286;2023-08-07T00:21:58;99546.88;;;11.98;100.00
64827;BME280;51265;53.972;12.286;2023-08-07T00:24:24;99546.06;;;11.97;100.00
64827;BME280;51265;53.972;12.286;2023-08-07T00:26:50;99543.91;;;12.03;100.00
64827;BME280;51265;53.972;12.286;2023-08-07T00:29:16;99544.88;;;12.07;100.00
64827;BME280;51265;53.972;12.286;2023-08-07T00:31:43;99543.25;;;12.06;100.00
64827;BME280;51265;53.972;12.286;2023-08-07T00:34:09;99545.53;;;12.04;100.00
64827;BME280;51265;53.972;12.286;2023-08-07T00:36:35;99551.88;;;12.04;100.00
64827;BME280;51265;53.972;12.286;2023-08-07T00:39:02;99567.88;;;12.11;100.00
64827;BME280;51265;53.972;12.286;2023-08-07T00:41:30;99571.94;;;12.13;100.00
64827;BME280;51265;53.972;12.286;2023-08-07T00:43:56;99568.03;;;12.14;100.00
64827;BME280;51265;53.972;12.286;2023-08-07T00:46:23;99554.84;;;12.20;100.00
64827;BME280;51265;53.972;12.286;2023-08-07T00:48:51;99569.59;;;12.24;100.00
64827;BME280;51265;53.972;12.286;2023-08-07T00:51:17;99565.50;;;12.30;100.00
64827;BME280;51265;53.972;12.286;2023-08-07T00:53:43;99555.13;;;12.27;100.00
64827;BME280;51265;53.972;12.286;2023-08-07T00:56:09;99557.50;;;12.08;100.00
64827;BME280;51265;53.972;12.286;2023-08-07T00:58:36;99540.13;;;11.78;100.00
64827;BME280;51265;53.972;12.286;2023-08-07T01:01:02;99530.50;;;11.63;100.00
64827;BME280;51265;53.972;12.286;2023-08-07T01:03:29;99512.69;;;11.52;100.00
64827;BME280;51265;53.972;12.286;2023-08-07T01:05:55;99501.88;;;11.46;100.00
64827;BME280;51265;53.972;12.286;2023-08-07T01:08:22;99507.56;;;11.41;100.00
64827;BME280;51265;53.972;12.286;2023-08-07T01:11:14;99493.78;;;11.41;100.00
64827;BME280;51265;53.972;12.286;2023-08-07T01:16:48;99481.47;;;11.39;100.00
64827;BME280;51265;53.972;12.286;2023-08-07T01:19:24;99477.06;;;11.46;100.00
64827;BME280;51265;53.972;12.286;2023-08-07T01:24:40;99471.84;;;11.54;100.00
64827;BME280;51265;53.972;12.286;2023-08-07T01:29:50;99480.06;;;11.62;100.00
64827;BME280;51265;53.972;12.286;2023-08-07T01:32:27;99482.75;;;11.71;100.00
64827;BME280;51265;53.972;12.286;2023-08-07T01:34:56;99490.16;;;11.79;100.00
64827;BME280;51265;53.972;12.286;2023-08-07T01:37:23;99491.41;;;11.90;100.00
64827;BME280;51265;53.972;12.286;2023-08-07T01:39:50;99485.38;;;11.97;100.00
64827;BME280;51265;53.972;12.286;2023-08-07T01:42:17;99485.75;;;12.08;100.00
64827;BME280;51265;53.972;12.286;2023-08-07T01:44:43;99489.28;;;12.17;100.00
64827;BME280;51265;53.972;12.286;2023-08-07T01:47:09;99498.97;;;12.23;100.00
64827;BME280;51265;53.972;12.286;2023-08-07T01:49:36;99501.50;;;12.28;100.00
64827;BME280;51265;53.972;12.286;2023-08-07T01:52:06;99499.22;;;12.30;100.00
64827;BME280;51265;53.972;12.286;2023-08-07T01:54:32;99502.44;;;12.32;100.00
64827;BME280;51265;53.972;12.286;2023-08-07T01:56:58;99505.69;;;12.34;100.00
64827;BME280;51265;53.972;12.286;2023-08-07T01:59:25;99501.13;;;12.38;100.00
64827;BME280;51265;53.972;12.286;2023-08-07T02:01:51;99512.28;;;12.42;100.00
64827;BME280;51265;53.972;12.286;2023-08-07T02:04:17;99510.78;;;12.44;100.00
64827;BME280;51265;53.972;12.286;2023-08-07T02:06:43;99515.16;;;12.45;100.00
64827;BME280;51265;53.972;12.286;2023-08-07T02:09:09;99517.25;;;12.49;100.00
64827;BME280;51265;53.972;12.286;2023-08-07T02:11:36;99513.34;;;12.50;100.00
64827;BME280;51265;53.972;12.286;2023-08-07T02:14:02;99516.09;;;12.50;100.00
64827;BME280;51265;53.972;12.286;2023-08-07T02:16:28;99513.34;;;12.50;100.00
64827;BME280;51265;53.972;12.286;2023-08-07T02:18:55;99507.81;;;12.50;100.00
64827;BME280;51265;53.972;12.286;2023-08-07T02:21:21;99510.13;;;12.48;100.00
64827;BME280;51265;53.972;12.286;2023-08-07T02:23:47;99517.25;;;12.49;100.00
64827;BME280;51265;53.972;12.286;2023-08-07T02:26:14;99511.72;;;12.49;100.00
64827;BME280;51265;53.972;12.286;2023-08-07T02:28:40;99512.88;;;12.48;100.00
64827;BME280;51265;53.972;12.286;2023-08-07T02:31:06;99511.72;;;12.49;100.00
64827;BME280;51265;53.972;12.286;2023-08-07T02:33:33;99506.34;;;12.52;100.00
64827;BME280;51265;53.972;12.286;2023-08-07T02:35:59;99508.75;;;12.54;100.00
64827;BME280;51265;53.972;12.286;2023-08-07T02:38:25;99501.75;;;12.56;100.00
64827;BME280;51265;53.972;12.286;2023-08-07T02:40:52;99503.06;;;12.59;100.00
64827;BME280;51265;53.972;12.286;2023-08-07T02:43:18;99496.81;;;12.62;100.00
64827;BME280;51265;53.972;12.286;2023-08-07T02:45:44;99502.84;;;12.64;100.00
64827;BME280;51265;53.972;12.286;2023-08-07T02:48:10;99505.59;;;12.64;100.00
64827;BME280;51265;53.972;12.286;2023-08-07T02:50:36;99491.91;;;12.67;100.00
64827;BME280;51265;53.972;12.286;2023-08-07T02:53:03;99493.16;;;12.70;100.00
64827;BME280;51265;53.972;12.286;2023-08-07T02:55:29;99478.69;;;12.73;100.00
64827;BME280;51265;53.972;12.286;2023-08-07T02:57:55;99474.75;;;12.74;100.00
64827;BME280;51265;53.972;12.286;2023-08-07T03:00:21;99477.22;;;12.76;100.00
64827;BME280;51265;53.972;12.286;2023-08-07T03:02:48;99472.47;;;12.76;100.00
64827;BME280;51265;53.972;12.286;2023-08-07T03:05:14;99460.75;;;12.79;100.00
64827;BME280;51265;53.972;12.286;2023-08-07T03:07:40;99463.97;;;12.81;100.00
64827;BME280;51265;53.972;12.286;2023-08-07T03:10:06;99461.34;;;12.85;100.00
64827;BME280;51265;53.972;12.286;2023-08-07T03:12:33;99461.69;;;12.83;100.00
64827;BME280;51265;53.972;12.286;2023-08-07T03:14:59;99460.19;;;12.86;100.00
64827;BME280;51265;53.972;12.286;2023-08-07T03:17:25;99455.47;;;12.86;100.00
64827;BME280;51265;53.972;12.286;2023-08-07T03:19:51;99447.97;;;12.87;100.00
64827;BME280;51265;53.972;12.286;2023-08-07T03:22:18;99451.44;;;12.84;100.00
64827;BME280;51265;53.972;12.286;2023-08-07T03:24:48;99446.72;;;12.84;100.00
64827;BME280;51265;53.972;12.286;2023-08-07T03:27:14;99450.72;;;12.87;100.00
64827;BME280;51265;53.972;12.286;2023-08-07T03:29:41;99457.78;;;12.84;100.00
64827;BME280;51265;53.972;12.286;2023-08-07T03:32:08;99456.75;;;12.89;100.00
64827;BME280;51265;53.972;12.286;2023-08-07T03:34:36;99462.84;;;12.94;100.00
64827;BME280;51265;53.972;12.286;2023-08-07T03:37:04;99464.44;;;12.95;100.00
64827;BME280;51265;53.972;12.286;2023-08-07T03:39:30;99469.31;;;12.99;100.00
64827;BME280;51265;53.972;12.286;2023-08-07T03:41:56;99481.97;;;13.00;100.00
64827;BME280;51265;53.972;12.286;2023-08-07T03:44:24;99462.63;;;13.00;100.00
64827;BME280;51265;53.972;12.286;2023-08-07T03:46:50;99467.47;;;13.03;100.00
64827;BME280;51265;53.972;12.286;2023-08-07T03:49:20;99459.75;;;13.08;100.00
64827;BME280;51265;53.972;12.286;2023-08-07T03:51:47;99464.28;;;13.13;100.00
64827;BME280;51265;53.972;12.286;2023-08-07T03:54:13;99471.72;;;13.12;100.00
64827;BME280;51265;53.972;12.286;2023-08-07T03:56:39;99465.88;;;13.14;100.00
64827;BME280;51265;53.972;12.286;2023-08-07T03:59:06;99472.56;;;13.13;100.00
64827;BME280;51265;53.972;12.286;2023-08-07T04:01:32;99466.56;;;13.11;100.00
64827;BME280;51265;53.972;12.286;2023-08-07T04:03:59;99459.88;;;13.12;100.00
64827;BME280;51265;53.972;12.286;2023-08-07T04:06:25;99462.50;;;13.08;100.00
64827;BME280;51265;53.972;12.286;2023-08-07T04:08:52;99462.41;;;13.05;100.00
64827;BME280;51265;53.972;12.286;2023-08-07T04:11:19;99452.16;;;13.05;100.00
64827;BME280;51265;53.972;12.286;2023-08-07T04:13:45;99456.19;;;13.08;100.00
64827;BME280;51265;53.972;12.286;2023-08-07T04:16:11;99445.13;;;13.08;100.00
64827;BME280;51265;53.972;12.286;2023-08-07T04:18:38;99456.75;;;13.01;100.00
64827;BME280;51265;53.972;12.286;2023-08-07T04:21:04;99448.91;;;13.03;100.00
64827;BME280;51265;53.972;12.286;2023-08-07T04:23:31;99449.72;;;13.04;100.00
64827;BME280;51265;53.972;12.286;2023-08-07T04:25:59;99448.91;;;13.03;100.00
64827;BME280;51265;53.972;12.286;2023-08-07T04:28:29;99451.34;;;13.05;100.00
64827;BME280;51265;53.972;12.286;2023-08-07T04:30:55;99446.28;;;13.07;100.00
64827;BME280;51265;53.972;12.286;2023-08-07T04:33:21;99446.75;;;13.09;100.00
64827;BME280;51265;53.972;12.286;2023-08-07T04:35:48;99434.19;;;13.11;100.00
64827;BME280;51265;53.972;12.286;2023-08-07T04:38:15;99447.56;;;13.09;100.00
64827;BME280;51265;53.972;12.286;2023-08-07T04:40:48;99446.75;;;13.09;100.00
64827;BME280;51265;53.972;12.286;2023-08-07T04:43:18;99438.91;;;13.11;100.00
64827;BME280;51265;53.972;12.286;2023-08-07T04:45:46;99440.53;;;13.12;100.00
64827;BME280;51265;53.972;12.286;2023-08-07T04:48:13;99441.31;;;13.12;100.00
64827;BME280;51265;53.972;12.286;2023-08-07T04:50:40;99441.22;;;13.09;100.00
64827;BME280;51265;53.972;12.286;2023-08-07T04:53:07;99451.94;;;13.10;100.00
64827;BME280;51265;53.972;12.286;2023-08-07T04:55:33;99446.75;;;13.09;100.00
64827;BME280;51265;53.972;12.286;2023-08-07T04:57:59;99443.63;;;13.10;100.00
64827;BME280;51265;53.972;12.286;2023-08-07T05:00:27;99438.91;;;13.11;100.00
64827;BME280;51265;53.972;12.286;2023-08-07T05:02:53;99436.63;;;13.13;100.00
64827;BME280;51265;53.972;12.286;2023-08-07T05:05:19;99427.84;;;13.11;100.00
64827;BME280;51265;53.972;12.286;2023-08-07T05:07:48;99434.31;;;13.15;100.00
64827;BME280;51265;53.972;12.286;2023-08-07T05:10:14;99428.44;;;13.16;100.00
64827;BME280;51265;53.972;12.286;2023-08-07T05:12:41;99424.84;;;13.16;100.00
64827;BME280;51265;53.972;12.286;2023-08-07T05:15:09;99427.19;;;13.14;100.00
64827;BME280;51265;53.972;12.286;2023-08-07T05:17:36;99417.03;;;13.18;100.00
64827;BME280;51265;53.972;12.286;2023-08-07T05:20:02;99421.88;;;13.21;100.00
64827;BME280;51265;53.972;12.286;2023-08-07T05:22:29;99419.59;;;13.23;100.00
64827;BME280;51265;53.972;12.286;2023-08-07T05:24:55;99421.56;;;13.23;100.00
64827;BME280;51265;53.972;12.286;2023-08-07T05:27:21;99422.22;;;13.19;100.00
64827;BME280;51265;53.972;12.286;2023-08-07T05:29:47;99423.38;;;13.18;100.00
64827;BME280;51265;53.972;12.286;2023-08-07T05:32:14;99419.44;;;13.19;100.00
64827;BME280;51265;53.972;12.286;2023-08-07T05:34:41;99427.84;;;13.11;100.00
64827;BME280;51265;53.972;12.286;2023-08-07T05:37:07;99428.75;;;13.03;100.00
64827;BME280;51265;53.972;12.286;2023-08-07T05:39:35;99416.78;;;12.99;100.00
64827;BME280;51265;53.972;12.286;2023-08-07T05:42:01;99427.41;;;12.96;100.00
64827;BME280;51265;53.972;12.286;2023-08-07T05:44:30;99413.09;;;12.94;100.00
64827;BME280;51265;53.972;12.286;2023-08-07T05:46:56;99417.03;;;12.93;100.00
64827;BME280;51265;53.972;12.286;2023-08-07T05:49:22;99422.41;;;12.90;100.00
64827;BME280;51265;53.972;12.286;2023-08-07T05:51:48;99414.50;;;12.88;100.00
64827;BME280;51265;53.972;12.286;2023-08-07T05:54:14;99404.13;;;12.85;100.00
64827;BME280;51265;53.972;12.286;2023-08-07T05:56:40;99412.75;;;12.84;100.00
64827;BME280;51265;53.972;12.286;2023-08-07T05:59:07;99397.78;;;12.85;100.00
64827;BME280;51265;53.972;12.286;2023-08-07T06:01:33;99407.56;;;12.82;100.00
64827;BME280;51265;53.972;12.286;2023-08-07T06:03:59;99399.25;;;12.82;100.00
64827;BME280;51265;53.972;12.286;2023-08-07T06:06:26;99406.19;;;12.76;100.00
64827;BME280;51265;53.972;12.286;2023-08-07T06:08:55;99400.53;;;12.73;100.00
64827;BME280;51265;53.972;12.286;2023-08-07T06:11:21;99404.78;;;12.70;100.00
64827;BME280;51265;53.972;12.286;2023-08-07T06:13:48;99397.88;;;12.64;100.00
64827;BME280;51265;53.972;12.286;2023-08-07T06:16:14;99415.13;;;12.61;100.00
64827;BME280;51265;53.972;12.286;2023-08-07T06:18:40;99422.94;;;12.59;100.00
64827;BME280;51265;53.972;12.286;2023-08-07T06:21:07;99396.69;;;12.53;100.00
64827;BME280;51265;53.972;12.286;2023-08-07T06:23:33;99425.91;;;12.54;100.00
64827;BME280;51265;53.972;12.286;2023-08-07T06:25:59;99425.22;;;12.57;100.00
64827;BME280;51265;53.972;12.286;2023-08-07T06:28:32;99421.31;;;12.58;100.00
64827;BME280;51265;53.972;12.286;2023-08-07T06:31:02;99443.66;;;12.65;100.00
64827;BME280;51265;53.972;12.286;2023-08-07T06:33:30;99443.00;;;12.68;100.00
64827;BME280;51265;53.972;12.286;2023-08-07T06:35:57;99438.72;;;12.70;100.00
64827;BME280;51265;53.972;12.286;2023-08-07T06:38:24;99443.25;;;12.75;100.00
64827;BME280;51265;53.972;12.286;2023-08-07T06:40:50;99440.25;;;12.80;100.00
64827;BME280;51265;53.972;12.286;2023-08-07T06:43:17;99438.66;;;12.79;100.00
64827;BME280;51265;53.972;12.286;2023-08-07T06:45:46;99449.00;;;12.82;100.00
64827;BME280;51265;53.972;12.286;2023-08-07T06:48:12;99430.13;;;12.84;100.00
64827;BME280;51265;53.972;12.286;2023-08-07T06:50:39;99429.44;;;12.87;100.00
64827;BME280;51265;53.972;12.286;2023-08-07T06:53:05;99444.41;;;12.86;100.00
64827;BME280;51265;53.972;12.286;2023-08-07T06:55:31;99431.06;;;12.88;100.00
64827;BME280;51265;53.972;12.286;2023-08-07T06:57:59;99428.06;;;12.93;100.00
64827;BME280;51265;53.972;12.286;2023-08-07T07:00:25;99437.28;;;12.98;100.00
64827;BME280;51265;53.972;12.286;2023-08-07T07:02:51;99429.94;;;13.02;100.00
64827;BME280;51265;53.972;12.286;2023-08-07T07:05:18;99421.41;;;13.07;100.00
64827;BME280;51265;53.972;12.286;2023-08-07T07:07:45;99424.66;;;13.09;100.00
64827;BME280;51265;53.972;12.286;2023-08-07T07:10:11;99424.06;;;13.15;100.00
64827;BME280;51265;53.972;12.286;2023-08-07T07:12:38;99422.56;;;13.18;100.00
64827;BME280;51265;53.972;12.286;2023-08-07T07:15:04;99409.81;;;13.26;100.00
64827;BME280;51265;53.972;12.286;2023-08-07T07:17:30;99405.09;;;13.26;100.00
64827;BME280;51265;53.972;12.286;2023-08-07T07:19:57;99399.19;;;13.28;100.00
64827;BME280;51265;53.972;12.286;2023-08-07T07:22:23;99405.53;;;13.28;100.00
64827;BME280;51265;53.972;12.286;2023-08-07T07:24:49;99392.19;;;13.30;100.00
64827;BME280;51265;53.972;12.286;2023-08-07T07:27:15;99388.94;;;13.28;100.00
64827;BME280;51265;53.972;12.286;2023-08-07T07:29:41;99370.97;;;13.34;100.00
64827;BME280;51265;53.972;12.286;2023-08-07T07:32:08;99379.03;;;13.39;100.00
64827;BME280;51265;53.972;12.286;2023-08-07T07:34:34;99375.09;;;13.40;100.00
64827;BME280;51265;53.972;12.286;2023-08-07T07:37:20;99368.88;;;13.43;100.00
64827;BME280;51265;53.972;12.286;2023-08-07T07:39:46;99376.03;;;13.44;100.00
64827;BME280;51265;53.972;12.286;2023-08-07T07:42:13;99374.88;;;13.45;100.00
64827;BME280;51265;53.972;12.286;2023-08-07T07:44:39;99375.09;;;13.53;100.00
64827;BME280;51265;53.972;12.286;2023-08-07T07:47:05;99372.78;;;13.55;100.00
64827;BME280;51265;53.972;12.286;2023-08-07T07:49:32;99365.75;;;13.57;100.00
64827;BME280;51265;53.972;12.286;2023-08-07T07:51:59;99366.22;;;13.59;100.00
64827;BME280;51265;53.972;12.286;2023-08-07T07:54:25;99354.66;;;13.69;100.00
64827;BME280;51265;53.972;12.286;2023-08-07T07:56:51;99360.13;;;13.82;100.00
64827;BME280;51265;53.972;12.286;2023-08-07T07:59:18;99349.81;;;13.94;100.00
64827;BME280;51265;53.972;12.286;2023-08-07T08:01:44;99333.44;;;14.02;100.00
64827;BME280;51265;53.972;12.286;2023-08-07T08:04:10;99328.53;;;14.11;100.00
64827;BME280;51265;53.972;12.286;2023-08-07T08:06:36;99323.53;;;14.16;100.00
64827;BME280;51265;53.972;12.286;2023-08-07T08:09:02;99320.44;;;14.18;100.00
64827;BME280;51265;53.972;12.286;2023-08-07T08:11:31;99305.41;;;14.19;100.00
64827;BME280;51265;53.972;12.286;2023-08-07T08:13:57;99307.81;;;14.20;100.00
64827;BME280;51265;53.972;12.286;2023-08-07T08:16:23;99323.38;;;14.25;100.00
64827;BME280;51265;53.972;12.286;2023-08-07T08:18:49;99306.06;;;14.28;100.00
64827;BME280;51265;53.972;12.286;2023-08-07T08:21:15;99312.75;;;14.27;100.00
64827;BME280;51265;53.972;12.286;2023-08-07T08:23:41;99306.53;;;14.30;100.00
64827;BME280;51265;53.972;12.286;2023-08-07T08:26:08;99308.13;;;14.31;100.00
64827;BME280;51265;53.972;12.286;2023-08-07T08:28:34;99300.19;;;14.30;100.00
64827;BME280;51265;53.972;12.286;2023-08-07T08:31:00;99296.25;;;14.31;100.00
64827;BME280;51265;53.972;12.286;2023-08-07T08:33:26;99299.44;;;14.33;100.00
64827;BME280;51265;53.972;12.286;2023-08-07T08:35:52;99294.53;;;14.26;100.00
64827;BME280;51265;53.972;12.286;2023-08-07T08:38:19;99300.16;;;14.45;100.00
64827;BME280;51265;53.972;12.286;2023-08-07T08:40:51;99295.78;;;14.44;100.00
64827;BME280;51265;53.972;12.286;2023-08-07T08:43:18;99304.81;;;14.41;100.00
64827;BME280;51265;53.972;12.286;2023-08-07T08:45:45;99298.47;;;14.41;100.00
64827;BME280;51265;53.972;12.286;2023-08-07T08:48:17;99300.16;;;14.45;100.00
64827;BME280;51265;53.972;12.286;2023-08-07T08:50:48;99301.09;;;14.50;100.00
64827;BME280;51265;53.972;12.286;2023-08-07T08:53:16;99313.34;;;14.49;100.00
64827;BME280;51265;53.972;12.286;2023-08-07T08:55:43;99302.72;;;14.51;100.00
64827;BME280;51265;53.972;12.286;2023-08-07T08:58:16;99302.44;;;14.56;100.00
64827;BME280;51265;53.972;12.286;2023-08-07T09:00:42;99302.97;;;14.61;100.00
64827;BME280;51265;53.972;12.286;2023-08-07T09:03:09;99291.38;;;14.56;100.00
64827;BME280;51265;53.972;12.286;2023-08-07T09:05:36;99281.88;;;14.57;100.00
64827;BME280;51265;53.972;12.286;2023-08-07T09:08:03;99269.22;;;14.56;100.00
64827;BME280;51265;53.972;12.286;2023-08-07T09:10:30;99274.56;;;14.49;100.00
64827;BME280;51265;53.972;12.286;2023-08-07T09:13:01;99282.41;;;14.47;100.00
64827;BME280;51265;53.972;12.286;2023-08-07T09:15:38;99292.31;;;14.32;100.00
64827;BME280;51265;53.972;12.286;2023-08-07T09:18:06;99287.75;;;14.39;100.00
64827;BME280;51265;53.972;12.286;2023-08-07T09:20:35;99280.34;;;14.43;100.00
64827;BME280;51265;53.972;12.286;2023-08-07T09:23:01;99304.38;;;14.39;100.00
64827;BME280;51265;53.972;12.286;2023-08-07T09:25:31;99294.19;;;14.43;100.00
64827;BME280;51265;53.972;12.286;2023-08-07T09:27:57;99284.94;;;14.52;100.00
64827;BME280;51265;53.972;12.286;2023-08-07T09:30:28;99279.28;;;14.48;100.00
64827;BME280;51265;53.972;12.286;2023-08-07T09:32:56;99293.25;;;14.52;100.00
64827;BME280;51265;53.972;12.286;2023-08-07T09:35:23;99286.53;;;14.53;100.00
64827;BME280;51265;53.972;12.286;2023-08-07T09:37:49;99282.78;;;14.61;100.00
64827;BME280;51265;53.972;12.286;2023-08-07T09:40:16;99283.13;;;14.75;100.00
64827;BME280;51265;53.972;12.286;2023-08-07T09:42:42;99277.75;;;14.82;100.00
64827;BME280;51265;53.972;12.286;2023-08-07T09:45:22;99276.22;;;15.01;100.00
64827;BME280;51265;53.972;12.286;2023-08-07T09:48:04;99279.69;;;14.98;100.00
64827;BME280;51265;53.972;12.286;2023-08-07T09:50:34;99274.88;;;14.94;100.00
64827;BME280;51265;53.972;12.286;2023-08-07T09:53:00;99276.47;;;14.95;100.00
64827;BME280;51265;53.972;12.286;2023-08-07T09:55:27;99260.63;;;14.96;100.00
64827;BME280;51265;53.972;12.286;2023-08-07T09:57:53;99265.28;;;14.92;100.00
64827;BME280;51265;53.972;12.286;2023-08-07T10:00:20;99273.44;;;15.01;100.00
64827;BME280;51265;53.972;12.286;2023-08-07T10:02:48;99278.00;;;14.93;100.00
64827;BME280;51265;53.972;12.286;2023-08-07T10:05:15;99258.22;;;14.94;100.00
64827;BME280;51265;53.972;12.286;2023-08-07T10:07:43;99256.81;;;15.01;100.00
64827;BME280;51265;53.972;12.286;2023-08-07T10:10:09;99260.00;;;15.03;100.00
64827;BME280;51265;53.972;12.286;2023-08-07T10:12:37;99257.91;;;15.15;100.00
64827;BME280;51265;53.972;12.286;2023-08-07T10:15:04;99252.38;;;15.15;100.00
64827;BME280;51265;53.972;12.286;2023-08-07T10:17:31;99239.97;;;15.09;100.00
64827;BME280;51265;53.972;12.286;2023-08-07T10:20:01;99243.97;;;15.12;100.00
64827;BME280;51265;53.972;12.286;2023-08-07T10:22:29;99228.50;;;15.11;100.00
64827;BME280;51265;53.972;12.286;2023-08-07T10:24:57;99247.31;;;15.21;100.00
64827;BME280;51265;53.972;12.286;2023-08-07T10:27:26;99238.66;;;15.23;100.00
64827;BME280;51265;53.972;12.286;2023-08-07T10:29:54;99231.59;;;15.44;99.06
64827;BME280;51265;53.972;12.286;2023-08-07T10:32:25;99235.28;;;15.68;97.26
64827;BME280;51265;53.972;12.286;2023-08-07T10:34:52;99226.63;;;15.73;96.48
64827;BME280;51265;53.972;12.286;2023-08-07T10:37:41;99233.78;;;15.74;96.02
64827;BME280;51265;53.972;12.286;2023-08-07T10:40:12;99216.75;;;15.56;96.20
64827;BME280;51265;53.972;12.286;2023-08-07T10:45:21;99215.22;;;15.59;94.60
64827;BME280;51265;53.972;12.286;2023-08-07T10:48:08;99205.88;;;15.67;93.96
64827;BME280;51265;53.972;12.286;2023-08-07T10:50:57;99202.84;;;15.72;93.38
64827;BME280;51265;53.972;12.286;2023-08-07T10:56:15;99197.28;;;15.72;91.18
64827;BME280;51265;53.972;12.286;2023-08-07T10:58:41;99179.50;;;15.57;90.61
64827;BME280;51265;53.972;12.286;2023-08-07T11:03:54;99168.75;;;15.75;89.00
64827;BME280;51265;53.972;12.286;2023-08-07T11:06:26;99150.66;;;15.81;86.69
64827;BME280;51265;53.972;12.286;2023-08-07T11:08:53;99151.59;;;15.89;86.09
64827;BME280;51265;53.972;12.286;2023-08-07T11:11:20;99140.66;;;16.00;85.13
64827;BME280;51265;53.972;12.286;2023-08-07T11:13:46;99144.22;;;16.23;84.91
64827;BME280;51265;53.972;12.286;2023-08-07T11:16:12;99117.59;;;16.49;83.19
64827;BME280;51265;53.972;12.286;2023-08-07T11:18:39;99106.69;;;16.63;81.20
64827;BME280;51265;53.972;12.286;2023-08-07T11:21:08;99082.34;;;16.83;80.84
64827;BME280;51265;53.972;12.286;2023-08-07T11:23:34;99075.75;;;16.95;80.14
64827;BME280;51265;53.972;12.286;2023-08-07T11:26:01;99061.38;;;17.26;78.72
64827;BME280;51265;53.972;12.286;2023-08-07T11:28:29;98999.56;;;17.43;75.44
64827;BME280;51265;53.972;12.286;2023-08-07T11:30:56;98974.09;;;17.41;73.03
64827;BME280;51265;53.972;12.286;2023-08-07T11:33:23;98974.25;;;17.63;71.90
64827;BME280;51265;53.972;12.286;2023-08-07T11:35:49;98981.53;;;17.75;71.42
64827;BME280;51265;53.972;12.286;2023-08-07T11:38:39;99097.31;;;17.79;71.24
64827;BME280;51265;53.972;12.286;2023-08-07T11:41:07;99117.97;;;18.19;71.74
64827;BME280;51265;53.972;12.286;2023-08-07T11:43:34;99139.78;;;18.65;71.60
64827;BME280;51265;53.972;12.286;2023-08-07T11:46:02;99092.41;;;18.10;68.33
64827;BME280;51265;53.972;12.286;2023-08-07T11:48:31;99128.50;;;18.44;68.60
64827;BME280;51265;53.972;12.286;2023-08-07T11:50:58;99133.53;;;18.24;68.38
64827;BME280;51265;53.972;12.286;2023-08-07T11:53:26;99121.69;;;17.89;68.61
64827;BME280;51265;53.972;12.286;2023-08-07T11:55:55;99149.44;;;17.79;69.91
64827;BME280;51265;53.972;12.286;2023-08-07T11:58:22;99140.88;;;17.61;70.39
64827;BME280;51265;53.972;12.286;2023-08-07T12:00:49;99183.25;;;17.43;71.16
64827;BME280;51265;53.972;12.286;2023-08-07T12:03:26;99212.47;;;17.27;71.13
64827;BME280;51265;53.972;12.286;2023-08-07T12:05:55;99213.63;;;17.26;71.73
64827;BME280;51265;53.972;12.286;2023-08-07T12:08:22;99238.97;;;17.51;71.88
64827;BME280;51265;53.972;12.286;2023-08-07T12:10:57;99203.19;;;17.49;70.69
64827;BME280;51265;53.972;12.286;2023-08-07T12:13:24;99184.59;;;17.57;68.75
64827;BME280;51265;53.972;12.286;2023-08-07T12:15:53;99176.38;;;17.71;68.38
64827;BME280;51265;53.972;12.286;2023-08-07T12:18:20;99175.69;;;18.22;67.95
64827;BME280;51265;53.972;12.286;2023-08-07T12:20:47;99177.34;;;18.30;67.96
64827;BME280;51265;53.972;12.286;2023-08-07T12:23:16;99148.41;;;17.94;67.50
64827;BME280;51265;53.972;12.286;2023-08-07T12:25:44;99182.22;;;17.96;68.94
64827;BME280;51265;53.972;12.286;2023-08-07T12:28:10;99179.94;;;17.72;68.72
64827;BME280;51265;53.972;12.286;2023-08-07T12:30:37;99169.59;;;17.31;68.61
64827;BME280;51265;53.972;12.286;2023-08-07T12:33:04;99191.59;;;17.43;69.38
64827;BME280;51265;53.972;12.286;2023-08-07T12:35:31;99200.66;;;17.37;69.22
64827;BME280;51265;53.972;12.286;2023-08-07T12:37:57;99181.97;;;17.37;69.06
64827;BME280;51265;53.972;12.286;2023-08-07T12:40:24;99226.06;;;18.03;69.57
64827;BME280;51265;53.972;12.286;2023-08-07T12:42:51;99229.34;;;18.12;68.96
64827;BME280;51265;53.972;12.286;2023-08-07T12:45:17;99185.63;;;17.79;67.97
64827;BME280;51265;53.972;12.286;2023-08-07T12:47:45;99175.28;;;17.79;67.25
64827;BME280;51265;53.972;12.286;2023-08-07T12:50:12;99171.91;;;17.63;67.07
64827;BME280;51265;53.972;12.286;2023-08-07T12:52:38;99189.00;;;17.61;67.24
64827;BME280;51265;53.972;12.286;2023-08-07T12:55:05;99229.53;;;17.92;68.10
64827;BME280;51265;53.972;12.286;2023-08-07T12:57:31;99203.31;;;17.60;68.75
64827;BME280;51265;53.972;12.286;2023-08-07T12:59:57;99232.97;;;17.15;69.59